sensor_id;sensor_type;location;lat;lon;timestamp;temperature;humidity
67817;DHT22;54614;47.576;7.524;2023-04-29T00:00:48;25.80;55.50
67817;DHT22;54614;47.576;7.524;2023-04-29T00:03:14;25.90;55.50
67817;DHT22;54614;47.576;7.524;2023-04-29T00:05:40;25.90;55.60
67817;DHT22;54614;47.576;7.524;2023-04-29T00:08:06;25.90;55.50
67817;DHT22;54614;47.576;7.524;2023-04-29T00:10:31;25.90;55.40
67817;DHT22;54614;47.576;7.524;2023-04-29T00:12:57;25.80;55.50
67817;DHT22;54614;47.576;7.524;2023-04-29T00:15:23;25.80;55.50
67817;DHT22;54614;47.576;7.524;2023-04-29T00:17:49;25.80;55.60
67817;DHT22;54614;47.576;7.524;2023-04-29T00:20:15;25.80;55.50
67817;DHT22;54614;47.576;7.524;2023-04-29T00:22:42;25.80;55.50
67817;DHT22;54614;47.576;7.524;2023-04-29T00:25:08;25.80;55.50
67817;DHT22;54614;47.576;7.524;2023-04-29T00:27:34;25.90;55.60
67817;DHT22;54614;47.576;7.524;2023-04-29T00:29:59;25.80;55.50
67817;DHT22;54614;47.576;7.524;2023-04-29T00:32:25;25.80;55.40
67817;DHT22;54614;47.576;7.524;2023-04-29T00:34:51;25.90;55.60
67817;DHT22;54614;47.576;7.524;2023-04-29T00:37:17;25.80;55.50
67817;DHT22;54614;47.576;7.524;2023-04-29T00:39:43;25.90;55.50
67817;DHT22;54614;47.576;7.524;2023-04-29T00:42:09;25.80;55.40
67817;DHT22;54614;47.576;7.524;2023-04-29T00:44:36;25.80;55.50
67817;DHT22;54614;47.576;7.524;2023-04-29T00:47:02;25.90;55.60
67817;DHT22;54614;47.576;7.524;2023-04-29T00:49:28;25.80;55.50
67817;DHT22;54614;47.576;7.524;2023-04-29T00:51:55;25.80;55.40
67817;DHT22;54614;47.576;7.524;2023-04-29T00:54:22;25.80;55.40
67817;DHT22;54614;47.576;7.524;2023-04-29T00:56:49;25.80;55.50
67817;DHT22;54614;47.576;7.524;2023-04-29T00:59:16;25.80;55.50
67817;DHT22;54614;47.576;7.524;2023-04-29T01:01:43;25.80;55.50
67817;DHT22;54614;47.576;7.524;2023-04-29T01:04:09;25.80;55.40
67817;DHT22;54614;47.576;7.524;2023-04-29T01:06:52;25.80;55.40
67817;DHT22;54614;47.576;7.524;2023-04-29T01:09:40;25.80;55.50
67817;DHT22;54614;47.576;7.524;2023-04-29T01:15:04;25.80;55.40
67817;DHT22;54614;47.576;7.524;2023-04-29T01:17:40;25.80;55.40
67817;DHT22;54614;47.576;7.524;2023-04-29T01:20:15;25.80;55.40
67817;DHT22;54614;47.576;7.524;2023-04-29T01:22:42;25.80;55.40
67817;DHT22;54614;47.576;7.524;2023-04-29T01:25:08;25.70;55.30
67817;DHT22;54614;47.576;7.524;2023-04-29T01:28:13;25.70;55.40
67817;DHT22;54614;47.576;7.524;2023-04-29T01:33:32;25.70;55.40
67817;DHT22;54614;47.576;7.524;2023-04-29T01:36:17;25.70;55.40
67817;DHT22;54614;47.576;7.524;2023-04-29T01:45:00;25.70;55.30
67817;DHT22;54614;47.576;7.524;2023-04-29T01:47:31;25.70;55.40
67817;DHT22;54614;47.576;7.524;2023-04-29T01:49:58;25.70;55.30
67817;DHT22;54614;47.576;7.524;2023-04-29T01:52:24;25.70;55.30
67817;DHT22;54614;47.576;7.524;2023-04-29T01:54:49;25.70;55.30
67817;DHT22;54614;47.576;7.524;2023-04-29T01:57:15;25.70;55.40
67817;DHT22;54614;47.576;7.524;2023-04-29T01:59:41;25.70;55.30
67817;DHT22;54614;47.576;7.524;2023-04-29T02:02:07;25.80;55.40
67817;DHT22;54614;47.576;7.524;2023-04-29T02:04:33;25.70;55.20
67817;DHT22;54614;47.576;7.524;2023-04-29T02:06:58;25.70;55.30
67817;DHT22;54614;47.576;7.524;2023-04-29T02:09:24;25.70;55.30
67817;DHT22;54614;47.576;7.524;2023-04-29T02:11:50;25.80;55.40
67817;DHT22;54614;47.576;7.524;2023-04-29T02:14:16;25.70;55.30
67817;DHT22;54614;47.576;7.524;2023-04-29T02:16:44;25.70;55.30
67817;DHT22;54614;47.576;7.524;2023-04-29T02:19:10;25.70;55.30
67817;DHT22;54614;47.576;7.524;2023-04-29T02:21:36;25.70;55.30
67817;DHT22;54614;47.576;7.524;2023-04-29T02:24:04;25.70;55.30
67817;DHT22;54614;47.576;7.524;2023-04-29T02:26:31;25.70;55.30
67817;DHT22;54614;47.576;7.524;2023-04-29T02:28:58;25.70;55.30
67817;DHT22;54614;47.576;7.524;2023-04-29T02:31:24;25.70;55.30
67817;DHT22;54614;47.576;7.524;2023-04-29T02:33:50;25.70;55.30
67817;DHT22;54614;47.576;7.524;2023-04-29T02:36:16;25.70;55.30
67817;DHT22;54614;47.576;7.524;2023-04-29T02:38:42;25.70;55.30
67817;DHT22;54614;47.576;7.524;2023-04-29T02:41:08;25.70;55.30
67817;DHT22;54614;47.576;7.524;2023-04-29T02:43:34;25.70;55.30
67817;DHT22;54614;47.576;7.524;2023-04-29T02:46:00;25.70;55.30
67817;DHT22;54614;47.576;7.524;2023-04-29T02:48:26;25.70;55.20
67817;DHT22;54614;47.576;7.524;2023-04-29T02:50:52;25.70;55.20
67817;DHT22;54614;47.576;7.524;2023-04-29T02:53:18;25.70;55.30
67817;DHT22;54614;47.576;7.524;2023-04-29T02:55:45;25.70;55.20
67817;DHT22;54614;47.576;7.524;2023-04-29T02:58:11;25.70;55.30
67817;DHT22;54614;47.576;7.524;2023-04-29T03:00:39;25.70;55.30
67817;DHT22;54614;47.576;7.524;2023-04-29T03:03:05;25.70;55.20
67817;DHT22;54614;47.576;7.524;2023-04-29T03:05:31;25.70;55.30
67817;DHT22;54614;47.576;7.524;2023-04-29T03:07:57;25.60;55.50
67817;DHT22;54614;47.576;7.524;2023-04-29T03:10:23;25.50;55.50
67817;DHT22;54614;47.576;7.524;2023-04-29T03:12:48;25.50;55.50
67817;DHT22;54614;47.576;7.524;2023-04-29T03:15:14;25.50;55.50
67817;DHT22;54614;47.576;7.524;2023-04-29T03:17:40;25.50;55.50
67817;DHT22;54614;47.576;7.524;2023-04-29T03:20:06;25.60;55.50
67817;DHT22;54614;47.576;7.524;2023-04-29T03:22:34;25.60;55.30
67817;DHT22;54614;47.576;7.524;2023-04-29T03:25:00;25.70;55.40
67817;DHT22;54614;47.576;7.524;2023-04-29T03:27:27;25.70;55.30
67817;DHT22;54614;47.576;7.524;2023-04-29T03:29:52;25.70;55.30
67817;DHT22;54614;47.576;7.524;2023-04-29T03:32:18;25.70;55.30
67817;DHT22;54614;47.576;7.524;2023-04-29T03:34:44;25.70;55.30
67817;DHT22;54614;47.576;7.524;2023-04-29T03:37:10;25.70;55.20
67817;DHT22;54614;47.576;7.524;2023-04-29T03:39:36;25.70;55.30
67817;DHT22;54614;47.576;7.524;2023-04-29T03:42:01;25.70;55.30
67817;DHT22;54614;47.576;7.524;2023-04-29T03:44:29;25.70;55.20
67817;DHT22;54614;47.576;7.524;2023-04-29T03:46:54;25.70;55.20
67817;DHT22;54614;47.576;7.524;2023-04-29T03:49:20;25.70;55.20
67817;DHT22;54614;47.576;7.524;2023-04-29T03:51:47;25.70;55.20
67817;DHT22;54614;47.576;7.524;2023-04-29T03:54:12;25.70;55.20
67817;DHT22;54614;47.576;7.524;2023-04-29T03:56:38;25.70;55.20
67817;DHT22;54614;47.576;7.524;2023-04-29T03:59:04;25.70;55.20
67817;DHT22;54614;47.576;7.524;2023-04-29T04:01:30;25.70;55.20
67817;DHT22;54614;47.576;7.524;2023-04-29T04:03:56;25.70;55.20
67817;DHT22;54614;47.576;7.524;2023-04-29T04:06:22;25.70;55.10
67817;DHT22;54614;47.576;7.524;2023-04-29T04:08:48;25.70;55.20
67817;DHT22;54614;47.576;7.524;2023-04-29T04:11:13;25.70;55.10
67817;DHT22;54614;47.576;7.524;2023-04-29T04:13:42;25.70;55.10
67817;DHT22;54614;47.576;7.524;2023-04-29T04:16:09;25.70;55.10
67817;DHT22;54614;47.576;7.524;2023-04-29T04:18:36;25.70;55.20
67817;DHT22;54614;47.576;7.524;2023-04-29T04:21:09;25.70;55.20
67817;DHT22;54614;47.576;7.524;2023-04-29T04:23:37;25.60;55.10
67817;DHT22;54614;47.576;7.524;2023-04-29T04:26:06;25.70;55.20
67817;DHT22;54614;47.576;7.524;2023-04-29T04:28:32;25.60;55.10
67817;DHT22;54614;47.576;7.524;2023-04-29T04:30:58;25.70;55.10
67817;DHT22;54614;47.576;7.524;2023-04-29T04:33:24;25.60;55.10
67817;DHT22;54614;47.576;7.524;2023-04-29T04:35:51;25.60;55.00
67817;DHT22;54614;47.576;7.524;2023-04-29T04:38:17;25.60;55.10
67817;DHT22;54614;47.576;7.524;2023-04-29T04:40:43;25.60;55.10
67817;DHT22;54614;47.576;7.524;2023-04-29T04:43:09;25.60;55.20
67817;DHT22;54614;47.576;7.524;2023-04-29T04:45:35;25.60;55.20
67817;DHT22;54614;47.576;7.524;2023-04-29T04:48:01;25.60;55.20
67817;DHT22;54614;47.576;7.524;2023-04-29T04:50:28;25.60;55.20
67817;DHT22;54614;47.576;7.524;2023-04-29T04:52:57;25.60;55.10
67817;DHT22;54614;47.576;7.524;2023-04-29T04:55:23;25.60;55.10
67817;DHT22;54614;47.576;7.524;2023-04-29T04:57:49;25.60;55.10
67817;DHT22;54614;47.576;7.524;2023-04-29T05:00:15;25.60;55.20
67817;DHT22;54614;47.576;7.524;2023-04-29T05:02:41;25.60;55.20
67817;DHT22;54614;47.576;7.524;2023-04-29T05:05:07;25.60;55.20
67817;DHT22;54614;47.576;7.524;2023-04-29T05:07:33;25.60;55.30
67817;DHT22;54614;47.576;7.524;2023-04-29T05:10:01;25.70;55.30
67817;DHT22;54614;47.576;7.524;2023-04-29T05:12:28;25.60;55.20
67817;DHT22;54614;47.576;7.524;2023-04-29T05:14:58;25.60;55.70
67817;DHT22;54614;47.576;7.524;2023-04-29T05:17:24;25.50;56.20
67817;DHT22;54614;47.576;7.524;2023-04-29T05:19:49;25.30;56.40
67817;DHT22;54614;47.576;7.524;2023-04-29T05:22:15;25.30;56.50
67817;DHT22;54614;47.576;7.524;2023-04-29T05:24:41;25.30;56.40
67817;DHT22;54614;47.576;7.524;2023-04-29T05:27:07;25.30;56.10
67817;DHT22;54614;47.576;7.524;2023-04-29T05:29:36;25.50;55.90
67817;DHT22;54614;47.576;7.524;2023-04-29T05:32:02;25.50;55.70
67817;DHT22;54614;47.576;7.524;2023-04-29T05:34:29;25.50;55.60
67817;DHT22;54614;47.576;7.524;2023-04-29T05:36:54;25.60;55.50
67817;DHT22;54614;47.576;7.524;2023-04-29T05:39:21;25.60;55.50
67817;DHT22;54614;47.576;7.524;2023-04-29T05:41:47;25.60;55.50
67817;DHT22;54614;47.576;7.524;2023-04-29T05:44:13;25.60;55.50
67817;DHT22;54614;47.576;7.524;2023-04-29T05:46:39;25.60;55.50
67817;DHT22;54614;47.576;7.524;2023-04-29T05:49:05;25.60;55.50
67817;DHT22;54614;47.576;7.524;2023-04-29T05:51:30;25.50;55.40
67817;DHT22;54614;47.576;7.524;2023-04-29T05:53:56;25.60;55.60
67817;DHT22;54614;47.576;7.524;2023-04-29T05:56:24;25.50;55.40
67817;DHT22;54614;47.576;7.524;2023-04-29T05:58:50;25.50;55.60
67817;DHT22;54614;47.576;7.524;2023-04-29T06:01:16;25.60;55.50
67817;DHT22;54614;47.576;7.524;2023-04-29T06:03:42;25.60;55.60
67817;DHT22;54614;47.576;7.524;2023-04-29T06:06:08;25.60;55.50
67817;DHT22;54614;47.576;7.524;2023-04-29T06:08:37;25.60;55.50
67817;DHT22;54614;47.576;7.524;2023-04-29T06:11:03;25.50;55.60
67817;DHT22;54614;47.576;7.524;2023-04-29T06:13:30;25.50;55.60
67817;DHT22;54614;47.576;7.524;2023-04-29T06:15:57;25.50;55.70
67817;DHT22;54614;47.576;7.524;2023-04-29T06:18:22;25.50;55.60
67817;DHT22;54614;47.576;7.524;2023-04-29T06:20:48;25.50;55.60
67817;DHT22;54614;47.576;7.524;2023-04-29T06:23:14;25.50;55.60
67817;DHT22;54614;47.576;7.524;2023-04-29T06:25:40;25.50;55.60
67817;DHT22;54614;47.576;7.524;2023-04-29T06:28:06;25.50;55.60
67817;DHT22;54614;47.576;7.524;2023-04-29T06:30:33;25.50;55.50
67817;DHT22;54614;47.576;7.524;2023-04-29T06:32:59;25.50;55.60
67817;DHT22;54614;47.576;7.524;2023-04-29T06:35:25;25.60;55.60
67817;DHT22;54614;47.576;7.524;2023-04-29T06:37:50;25.60;55.60
67817;DHT22;54614;47.576;7.524;2023-04-29T06:40:17;25.60;55.50
67817;DHT22;54614;47.576;7.524;2023-04-29T06:42:43;25.60;55.50
67817;DHT22;54614;47.576;7.524;2023-04-29T06:45:09;25.50;55.80
67817;DHT22;54614;47.576;7.524;2023-04-29T06:47:35;25.50;55.70
67817;DHT22;54614;47.576;7.524;2023-04-29T06:50:01;25.50;56.00
67817;DHT22;54614;47.576;7.524;2023-04-29T06:52:27;25.50;56.00
67817;DHT22;54614;47.576;7.524;2023-04-29T06:54:53;25.50;56.50
67817;DHT22;54614;47.576;7.524;2023-04-29T06:57:19;25.50;56.90
67817;DHT22;54614;47.576;7.524;2023-04-29T06:59:45;25.50;57.30
67817;DHT22;54614;47.576;7.524;2023-04-29T07:02:11;25.50;56.70
67817;DHT22;54614;47.576;7.524;2023-04-29T07:04:36;25.50;56.70
67817;DHT22;54614;47.576;7.524;2023-04-29T07:07:02;25.50;56.80
67817;DHT22;54614;47.576;7.524;2023-04-29T07:09:28;25.60;56.90
67817;DHT22;54614;47.576;7.524;2023-04-29T07:11:54;25.60;56.90
67817;DHT22;54614;47.576;7.524;2023-04-29T07:14:20;25.60;56.80
67817;DHT22;54614;47.576;7.524;2023-04-29T07:16:51;25.60;56.80
67817;DHT22;54614;47.576;7.524;2023-04-29T07:19:18;25.60;56.80
67817;DHT22;54614;47.576;7.524;2023-04-29T07:21:44;25.60;56.70
67817;DHT22;54614;47.576;7.524;2023-04-29T07:24:09;25.60;56.70
67817;DHT22;54614;47.576;7.524;2023-04-29T07:26:35;25.60;56.70
67817;DHT22;54614;47.576;7.524;2023-04-29T07:29:01;25.60;56.60
67817;DHT22;54614;47.576;7.524;2023-04-29T07:31:27;25.60;56.60
67817;DHT22;54614;47.576;7.524;2023-04-29T07:33:54;25.60;56.70
67817;DHT22;54614;47.576;7.524;2023-04-29T07:36:20;25.60;56.60
67817;DHT22;54614;47.576;7.524;2023-04-29T07:38:45;25.60;56.60
67817;DHT22;54614;47.576;7.524;2023-04-29T07:41:11;25.60;56.60
67817;DHT22;54614;47.576;7.524;2023-04-29T07:43:37;25.60;56.60
67817;DHT22;54614;47.576;7.524;2023-04-29T07:46:03;25.60;56.60
67817;DHT22;54614;47.576;7.524;2023-04-29T07:48:28;25.60;56.70
67817;DHT22;54614;47.576;7.524;2023-04-29T07:50:54;25.70;56.70
67817;DHT22;54614;47.576;7.524;2023-04-29T07:53:20;25.60;57.30
67817;DHT22;54614;47.576;7.524;2023-04-29T07:55:46;25.50;57.20
67817;DHT22;54614;47.576;7.524;2023-04-29T07:58:12;25.60;56.90
67817;DHT22;54614;47.576;7.524;2023-04-29T08:00:38;25.60;56.80
67817;DHT22;54614;47.576;7.524;2023-04-29T08:03:04;25.70;56.90
67817;DHT22;54614;47.576;7.524;2023-04-29T08:05:29;25.70;56.70
67817;DHT22;54614;47.576;7.524;2023-04-29T08:07:56;25.60;57.10
67817;DHT22;54614;47.576;7.524;2023-04-29T08:10:21;25.60;57.30
67817;DHT22;54614;47.576;7.524;2023-04-29T08:12:48;25.60;57.40
67817;DHT22;54614;47.576;7.524;2023-04-29T08:15:14;25.70;57.60
67817;DHT22;54614;47.576;7.524;2023-04-29T08:17:40;25.70;57.70
67817;DHT22;54614;47.576;7.524;2023-04-29T08:20:07;25.60;57.90
67817;DHT22;54614;47.576;7.524;2023-04-29T08:22:33;25.50;58.20
67817;DHT22;54614;47.576;7.524;2023-04-29T08:24:59;25.60;58.00
67817;DHT22;54614;47.576;7.524;2023-04-29T08:27:27;25.70;57.90
67817;DHT22;54614;47.576;7.524;2023-04-29T08:29:53;25.80;57.80
67817;DHT22;54614;47.576;7.524;2023-04-29T08:32:20;25.80;57.80
67817;DHT22;54614;47.576;7.524;2023-04-29T08:34:47;25.90;57.80
67817;DHT22;54614;47.576;7.524;2023-04-29T08:37:13;25.90;58.00
67817;DHT22;54614;47.576;7.524;2023-04-29T08:39:39;25.90;58.00
67817;DHT22;54614;47.576;7.524;2023-04-29T08:42:10;25.90;58.00
67817;DHT22;54614;47.576;7.524;2023-04-29T08:44:37;26.00;57.80
67817;DHT22;54614;47.576;7.524;2023-04-29T08:47:04;26.00;57.70
67817;DHT22;54614;47.576;7.524;2023-04-29T08:49:31;26.00;57.70
67817;DHT22;54614;47.576;7.524;2023-04-29T08:51:58;26.00;57.70
67817;DHT22;54614;47.576;7.524;2023-04-29T08:54:25;26.10;57.70
67817;DHT22;54614;47.576;7.524;2023-04-29T08:56:54;26.10;57.80
67817;DHT22;54614;47.576;7.524;2023-04-29T08:59:22;26.10;57.70
67817;DHT22;54614;47.576;7.524;2023-04-29T09:01:50;26.10;57.60
67817;DHT22;54614;47.576;7.524;2023-04-29T09:04:29;26.20;57.70
67817;DHT22;54614;47.576;7.524;2023-04-29T09:06:56;26.20;57.60
67817;DHT22;54614;47.576;7.524;2023-04-29T09:09:24;26.20;57.40
67817;DHT22;54614;47.576;7.524;2023-04-29T09:11:50;26.20;57.30
67817;DHT22;54614;47.576;7.524;2023-04-29T09:14:18;26.20;57.40
67817;DHT22;54614;47.576;7.524;2023-04-29T09:16:46;26.30;57.50
67817;DHT22;54614;47.576;7.524;2023-04-29T09:19:31;26.30;57.10
67817;DHT22;54614;47.576;7.524;2023-04-29T09:21:59;26.30;57.20
67817;DHT22;54614;47.576;7.524;2023-04-29T09:24:29;26.30;57.00
67817;DHT22;54614;47.576;7.524;2023-04-29T09:26:57;26.30;56.90
67817;DHT22;54614;47.576;7.524;2023-04-29T09:29:23;26.30;57.00
67817;DHT22;54614;47.576;7.524;2023-04-29T09:31:49;26.40;57.00
67817;DHT22;54614;47.576;7.524;2023-04-29T09:34:33;26.40;57.20
67817;DHT22;54614;47.576;7.524;2023-04-29T09:37:25;26.40;56.80
67817;DHT22;54614;47.576;7.524;2023-04-29T09:39:53;26.40;56.80
67817;DHT22;54614;47.576;7.524;2023-04-29T09:42:19;26.40;56.70
67817;DHT22;54614;47.576;7.524;2023-04-29T09:44:45;26.40;56.60
67817;DHT22;54614;47.576;7.524;2023-04-29T09:47:11;26.40;56.60
67817;DHT22;54614;47.576;7.524;2023-04-29T09:49:42;26.40;56.60
67817;DHT22;54614;47.576;7.524;2023-04-29T09:52:12;26.40;56.50
67817;DHT22;54614;47.576;7.524;2023-04-29T09:54:41;26.40;56.40
67817;DHT22;54614;47.576;7.524;2023-04-29T09:57:10;26.40;56.30
67817;DHT22;54614;47.576;7.524;2023-04-29T09:59:39;26.40;56.30
67817;DHT22;54614;47.576;7.524;2023-04-29T10:02:12;26.40;56.30
67817;DHT22;54614;47.576;7.524;2023-04-29T10:04:46;26.40;56.20
67817;DHT22;54614;47.576;7.524;2023-04-29T10:07:18;26.40;56.10
67817;DHT22;54614;47.576;7.524;2023-04-29T10:09:45;26.40;56.10
67817;DHT22;54614;47.576;7.524;2023-04-29T10:12:15;26.40;56.10
67817;DHT22;54614;47.576;7.524;2023-04-29T10:18:13;26.40;56.00
67817;DHT22;54614;47.576;7.524;2023-04-29T10:20:47;26.40;56.00
67817;DHT22;54614;47.576;7.524;2023-04-29T10:23:14;26.50;55.90
67817;DHT22;54614;47.576;7.524;2023-04-29T10:25:43;26.50;55.90
67817;DHT22;54614;47.576;7.524;2023-04-29T10:28:14;26.50;55.90
67817;DHT22;54614;47.576;7.524;2023-04-29T10:30:43;26.50;55.70
67817;DHT22;54614;47.576;7.524;2023-04-29T10:33:10;26.50;55.70
67817;DHT22;54614;47.576;7.524;2023-04-29T10:35:37;26.50;55.60
67817;DHT22;54614;47.576;7.524;2023-04-29T10:38:17;26.50;55.70
67817;DHT22;54614;47.576;7.524;2023-04-29T10:40:50;26.50;55.60
67817;DHT22;54614;47.576;7.524;2023-04-29T10:43:25;26.50;55.60
67817;DHT22;54614;47.576;7.524;2023-04-29T10:48:43;26.50;55.50
67817;DHT22;54614;47.576;7.524;2023-04-29T10:51:09;26.50;55.60
67817;DHT22;54614;47.576;7.524;2023-04-29T10:53:36;26.50;55.50
67817;DHT22;54614;47.576;7.524;2023-04-29T10:56:46;26.50;55.60
67817;DHT22;54614;47.576;7.524;2023-04-29T11:01:58;26.50;55.60
67817;DHT22;54614;47.576;7.524;2023-04-29T11:04:23;26.50;55.60
67817;DHT22;54614;47.576;7.524;2023-04-29T11:06:55;26.50;55.60
67817;DHT22;54614;47.576;7.524;2023-04-29T11:09:28;26.50;55.50
67817;DHT22;54614;47.576;7.524;2023-04-29T11:14:50;26.50;55.50
67817;DHT22;54614;47.576;7.524;2023-04-29T11:17:17;26.50;55.50
67817;DHT22;54614;47.576;7.524;2023-04-29T11:19:51;26.50;55.40
67817;DHT22;54614;47.576;7.524;2023-04-29T11:22:27;26.50;55.40
67817;DHT22;54614;47.576;7.524;2023-04-29T11:25:07;26.50;55.30
67817;DHT22;54614;47.576;7.524;2023-04-29T11:27:37;26.50;55.30
67817;DHT22;54614;47.576;7.524;2023-04-29T11:30:05;26.50;55.30
67817;DHT22;54614;47.576;7.524;2023-04-29T11:32:34;26.50;55.30
67817;DHT22;54614;47.576;7.524;2023-04-29T11:35:15;26.50;55.30
67817;DHT22;54614;47.576;7.524;2023-04-29T11:37:44;26.40;55.30
67817;DHT22;54614;47.576;7.524;2023-04-29T11:40:11;26.50;55.40
67817;DHT22;54614;47.576;7.524;2023-04-29T11:42:48;26.50;55.30
67817;DHT22;54614;47.576;7.524;2023-04-29T11:45:17;26.50;55.30
67817;DHT22;54614;47.576;7.524;2023-04-29T11:47:45;26.50;55.20
67817;DHT22;54614;47.576;7.524;2023-04-29T11:50:13;26.50;55.10
67817;DHT22;54614;47.576;7.524;2023-04-29T11:52:46;26.50;55.10
67817;DHT22;54614;47.576;7.524;2023-04-29T11:55:12;26.50;55.10
67817;DHT22;54614;47.576;7.524;2023-04-29T11:57:39;26.50;55.10
67817;DHT22;54614;47.576;7.524;2023-04-29T12:00:08;26.50;55.10
67817;DHT22;54614;47.576;7.524;2023-04-29T12:02:38;26.50;55.00
67817;DHT22;54614;47.576;7.524;2023-04-29T12:05:08;26.50;55.20
67817;DHT22;54614;47.576;7.524;2023-04-29T12:07:34;26.50;55.40
67817;DHT22;54614;47.576;7.524;2023-04-29T12:10:01;26.50;55.50
67817;DHT22;54614;47.576;7.524;2023-04-29T12:12:28;26.50;55.60
67817;DHT22;54614;47.576;7.524;2023-04-29T12:14:56;26.50;55.40
67817;DHT22;54614;47.576;7.524;2023-04-29T12:17:22;26.50;55.50
67817;DHT22;54614;47.576;7.524;2023-04-29T12:19:49;26.50;55.40
67817;DHT22;54614;47.576;7.524;2023-04-29T12:22:15;26.50;55.50
67817;DHT22;54614;47.576;7.524;2023-04-29T12:24:41;26.50;55.40
67817;DHT22;54614;47.576;7.524;2023-04-29T12:27:08;26.40;57.40
67817;DHT22;54614;47.576;7.524;2023-04-29T12:29:38;26.30;57.70
67817;DHT22;54614;47.576;7.524;2023-04-29T12:32:11;26.10;58.00
67817;DHT22;54614;47.576;7.524;2023-04-29T12:34:41;26.00;57.90
67817;DHT22;54614;47.576;7.524;2023-04-29T12:37:08;26.00;57.90
67817;DHT22;54614;47.576;7.524;2023-04-29T12:39:35;26.00;57.90
67817;DHT22;54614;47.576;7.524;2023-04-29T12:42:00;25.90;58.00
67817;DHT22;54614;47.576;7.524;2023-04-29T12:44:34;26.00;57.40
67817;DHT22;54614;47.576;7.524;2023-04-29T12:47:09;26.00;57.30
67817;DHT22;54614;47.576;7.524;2023-04-29T12:49:36;26.00;57.30
67817;DHT22;54614;47.576;7.524;2023-04-29T12:52:05;26.00;57.40
67817;DHT22;54614;47.576;7.524;2023-04-29T12:54:35;26.00;57.60
67817;DHT22;54614;47.576;7.524;2023-04-29T12:57:02;26.00;57.60
67817;DHT22;54614;47.576;7.524;2023-04-29T12:59:28;26.00;57.50
67817;DHT22;54614;47.576;7.524;2023-04-29T13:01:54;26.00;57.40
67817;DHT22;54614;47.576;7.524;2023-04-29T13:04:20;26.00;57.40
67817;DHT22;54614;47.576;7.524;2023-04-29T13:06:46;26.00;57.30
67817;DHT22;54614;47.576;7.524;2023-04-29T13:09:12;26.00;57.30
67817;DHT22;54614;47.576;7.524;2023-04-29T13:11:38;26.00;57.00
67817;DHT22;54614;47.576;7.524;2023-04-29T13:14:04;26.00;56.90
67817;DHT22;54614;47.576;7.524;2023-04-29T13:16:34;26.10;57.00
67817;DHT22;54614;47.576;7.524;2023-04-29T13:19:00;26.00;57.10
67817;DHT22;54614;47.576;7.524;2023-04-29T13:21:26;26.00;57.30
67817;DHT22;54614;47.576;7.524;2023-04-29T13:23:53;26.00;57.10
67817;DHT22;54614;47.576;7.524;2023-04-29T13:26:19;26.00;57.00
67817;DHT22;54614;47.576;7.524;2023-04-29T13:28:45;26.00;57.10
67817;DHT22;54614;47.576;7.524;2023-04-29T13:31:11;26.10;57.10
67817;DHT22;54614;47.576;7.524;2023-04-29T13:33:37;26.10;57.00
67817;DHT22;54614;47.576;7.524;2023-04-29T13:36:03;26.10;57.00
67817;DHT22;54614;47.576;7.524;2023-04-29T13:38:29;26.10;57.00
67817;DHT22;54614;47.576;7.524;2023-04-29T13:40:55;26.10;57.00
67817;DHT22;54614;47.576;7.524;2023-04-29T13:43:21;26.10;57.00
67817;DHT22;54614;47.576;7.524;2023-04-29T13:45:47;26.10;56.90
67817;DHT22;54614;47.576;7.524;2023-04-29T13:48:13;26.20;56.90
67817;DHT22;54614;47.576;7.524;2023-04-29T13:50:39;26.20;57.00
67817;DHT22;54614;47.576;7.524;2023-04-29T13:53:06;26.10;57.10
67817;DHT22;54614;47.576;7.524;2023-04-29T13:55:32;26.10;57.10
67817;DHT22;54614;47.576;7.524;2023-04-29T13:58:01;26.20;57.20
67817;DHT22;54614;47.576;7.524;2023-04-29T14:00:27;26.20;57.00
67817;DHT22;54614;47.576;7.524;2023-04-29T14:02:54;26.30;56.50
67817;DHT22;54614;47.576;7.524;2023-04-29T14:05:20;26.40;56.40
67817;DHT22;54614;47.576;7.524;2023-04-29T14:07:46;26.40;56.00
67817;DHT22;54614;47.576;7.524;2023-04-29T14:10:11;26.50;55.90
67817;DHT22;54614;47.576;7.524;2023-04-29T14:12:37;26.50;55.90
67817;DHT22;54614;47.576;7.524;2023-04-29T14:15:03;26.60;55.90
67817;DHT22;54614;47.576;7.524;2023-04-29T14:17:30;26.60;55.80
67817;DHT22;54614;47.576;7.524;2023-04-29T14:19:56;26.60;56.40
67817;DHT22;54614;47.576;7.524;2023-04-29T14:22:22;26.60;55.70
67817;DHT22;54614;47.576;7.524;2023-04-29T14:24:47;26.60;56.40
67817;DHT22;54614;47.576;7.524;2023-04-29T14:27:13;26.60;55.70
67817;DHT22;54614;47.576;7.524;2023-04-29T14:29:39;26.60;55.80
67817;DHT22;54614;47.576;7.524;2023-04-29T14:32:05;26.60;55.60
67817;DHT22;54614;47.576;7.524;2023-04-29T14:34:32;26.60;55.40
67817;DHT22;54614;47.576;7.524;2023-04-29T14:36:57;26.60;55.40
67817;DHT22;54614;47.576;7.524;2023-04-29T14:39:24;26.60;55.80
67817;DHT22;54614;47.576;7.524;2023-04-29T14:41:51;26.70;55.70
67817;DHT22;54614;47.576;7.524;2023-04-29T14:44:17;26.70;56.50
67817;DHT22;54614;47.576;7.524;2023-04-29T14:46:43;26.50;56.40
67817;DHT22;54614;47.576;7.524;2023-04-29T14:49:08;26.60;55.80
67817;DHT22;54614;47.576;7.524;2023-04-29T14:51:34;26.60;56.90
67817;DHT22;54614;47.576;7.524;2023-04-29T14:54:00;26.40;57.30
67817;DHT22;54614;47.576;7.524;2023-04-29T14:56:26;26.40;57.10
67817;DHT22;54614;47.576;7.524;2023-04-29T14:58:52;26.50;57.50
67817;DHT22;54614;47.576;7.524;2023-04-29T15:01:18;26.40;57.10
67817;DHT22;54614;47.576;7.524;2023-04-29T15:03:43;26.40;56.30
67817;DHT22;54614;47.576;7.524;2023-04-29T15:06:09;26.50;55.90
67817;DHT22;54614;47.576;7.524;2023-04-29T15:08:35;26.60;56.30
67817;DHT22;54614;47.576;7.524;2023-04-29T15:11:02;26.70;56.10
67817;DHT22;54614;47.576;7.524;2023-04-29T15:13:28;26.70;56.40
67817;DHT22;54614;47.576;7.524;2023-04-29T15:15:54;26.70;57.00
67817;DHT22;54614;47.576;7.524;2023-04-29T15:18:20;26.60;57.50
67817;DHT22;54614;47.576;7.524;2023-04-29T15:20:47;26.60;58.00
67817;DHT22;54614;47.576;7.524;2023-04-29T15:23:15;26.50;57.40
67817;DHT22;54614;47.576;7.524;2023-04-29T15:25:41;26.60;57.60
67817;DHT22;54614;47.576;7.524;2023-04-29T15:28:07;26.50;57.80
67817;DHT22;54614;47.576;7.524;2023-04-29T15:30:33;26.60;57.80
67817;DHT22;54614;47.576;7.524;2023-04-29T15:33:00;26.50;57.50
67817;DHT22;54614;47.576;7.524;2023-04-29T15:35:26;26.60;57.30
67817;DHT22;54614;47.576;7.524;2023-04-29T15:37:52;26.60;57.80
67817;DHT22;54614;47.576;7.524;2023-04-29T15:40:18;26.60;57.50
67817;DHT22;54614;47.576;7.524;2023-04-29T15:42:44;26.60;57.30
67817;DHT22;54614;47.576;7.524;2023-04-29T15:45:10;26.60;56.90
67817;DHT22;54614;47.576;7.524;2023-04-29T15:47:36;26.60;57.20
67817;DHT22;54614;47.576;7.524;2023-04-29T15:50:02;26.60;57.30
67817;DHT22;54614;47.576;7.524;2023-04-29T15:52:28;26.70;56.80
67817;DHT22;54614;47.576;7.524;2023-04-29T15:54:54;26.70;57.00